Time;durP1;ratioP1;P1;durP2;ratioP2;P2;SDS_P1;SDS_P2;PMS_P1;PMS_P2;Temp;Humidity;BMP_temperature;BMP_pressure;BME280_temperature;BME280_humidity;BME280_pressure;Samples;Min_cycle;Max_cycle;Signal;HPM_P1;HPM_P2
2021/11/16 00:00:53;;;;;;;32.47;19.43;;;5.60;1.00;;;;;;5073304;28;20211;-64
2021/11/16 00:03:21;;;;;;;36.07;20.27;;;5.60;1.00;;;;;;5073045;28;20204;-65
2021/11/16 00:05:48;;;;;;;34.60;19.77;;;5.60;1.00;;;;;;5072135;28;20205;-65
2021/11/16 00:08:15;;;;;;;36.93;20.20;;;5.60;1.00;;;;;;5073907;28;20209;-64
2021/11/16 00:10:41;;;;;;;34.00;19.33;;;5.60;1.00;;;;;;5073983;28;20264;-65
2021/11/16 00:13:11;;;;;;;36.87;20.10;;;5.60;1.00;;;;;;5073646;28;20215;-64
2021/11/16 00:15:38;;;;;;;35.00;19.30;;;5.60;1.00;;;;;;5072736;28;20212;-64
2021/11/16 00:18:05;;;;;;;32.10;19.10;;;5.60;1.00;;;;;;5071944;28;20236;-64
2021/11/16 00:20:36;;;;;;;33.77;19.13;;;5.60;1.00;;;;;;5073675;28;20205;-64
2021/11/16 00:23:03;;;;;;;33.77;18.50;;;5.60;1.00;;;;;;5072796;28;20572;-64
2021/11/16 00:25:34;;;;;;;32.03;18.13;;;5.70;1.00;;;;;;5073061;28;20209;-64
2021/11/16 00:28:01;;;;;;;31.97;19.03;;;5.60;1.00;;;;;;5073450;28;20208;-64
2021/11/16 00:30:28;;;;;;;30.07;18.30;;;5.60;1.00;;;;;;5072981;28;20229;-65
2021/11/16 00:32:55;;;;;;;29.37;14.73;;;5.60;1.00;;;;;;5072284;28;20568;-64
2021/11/16 00:35:22;;;;;;;27.43;15.70;;;5.50;1.00;;;;;;5072320;28;20232;-64
2021/11/16 00:37:50;;;;;;;34.20;18.03;;;5.50;1.00;;;;;;5073038;28;20211;-64
2021/11/16 00:40:19;;;;;;;33.73;18.23;;;5.50;1.00;;;;;;5071785;28;20247;-65
2021/11/16 00:42:48;;;;;;;31.03;17.60;;;5.60;1.00;;;;;;5072747;28;20201;-65
2021/11/16 00:45:15;;;;;;;31.23;17.10;;;5.60;1.00;;;;;;5072088;28;20289;-64
2021/11/16 00:47:43;;;;;;;33.37;17.83;;;5.60;1.00;;;;;;5072282;28;20204;-64
2021/11/16 00:50:10;;;;;;;34.37;19.40;;;5.60;1.00;;;;;;5072789;28;20278;-64
2021/11/16 00:52:38;;;;;;;31.17;17.63;;;5.60;1.00;;;;;;5071594;28;20258;-64
2021/11/16 00:55:06;;;;;;;34.27;19.20;;;5.60;1.00;;;;;;5071460;28;20270;-65
2021/11/16 00:57:33;;;;;;;31.10;16.97;;;5.60;1.00;;;;;;5071293;28;20658;-65
2021/11/16 01:00:00;;;;;;;31.27;18.53;;;5.60;1.00;;;;;;5071782;28;20580;-64
2021/11/16 01:02:26;;;;;;;31.50;17.87;;;5.60;1.00;;;;;;5071473;28;20691;-64
2021/11/16 01:04:54;;;;;;;31.97;18.63;;;5.50;1.00;;;;;;5071811;28;20229;-64
2021/11/16 01:07:21;;;;;;;32.90;17.63;;;5.50;1.00;;;;;;5071566;28;20207;-64
2021/11/16 01:09:48;;;;;;;32.30;18.03;;;5.50;1.00;;;;;;5072254;28;20225;-64
2021/11/16 01:12:17;;;;;;;29.80;17.43;;;5.50;1.00;;;;;;5072132;28;20212;-64
2021/11/16 01:14:46;;;;;;;35.07;18.80;;;5.50;1.00;;;;;;5070998;28;20719;-65
2021/11/16 01:17:13;;;;;;;33.43;17.93;;;5.70;1.00;;;;;;5071777;28;20205;-64
2021/11/16 01:19:40;;;;;;;31.40;18.53;;;5.60;1.00;;;;;;5071980;28;20674;-65
2021/11/16 01:22:07;;;;;;;29.70;17.47;;;5.70;1.00;;;;;;5071719;28;20205;-64
2021/11/16 01:24:34;;;;;;;33.87;19.70;;;5.60;1.00;;;;;;5070609;28;20224;-64
2021/11/16 01:27:01;;;;;;;35.23;19.90;;;5.50;1.00;;;;;;5071725;28;20239;-65
2021/11/16 01:29:29;;;;;;;34.07;18.33;;;5.50;1.00;;;;;;5072022;28;20243;-64
2021/11/16 01:31:57;;;;;;;33.10;18.77;;;5.60;1.00;;;;;;5071639;28;20281;-64
2021/11/16 01:34:27;;;;;;;34.20;20.07;;;5.60;1.00;;;;;;5070616;28;20598;-64
2021/11/16 01:36:55;;;;;;;33.97;18.50;;;5.50;1.00;;;;;;5071561;28;20580;-64
2021/11/16 01:39:22;;;;;;;37.47;19.63;;;5.50;1.00;;;;;;5072049;28;20213;-64
2021/11/16 01:41:49;;;;;;;32.80;18.43;;;5.50;1.00;;;;;;5071542;28;20209;-65
2021/11/16 01:44:15;;;;;;;34.53;19.17;;;5.60;1.00;;;;;;5071333;28;20244;-64
2021/11/16 01:46:43;;;;;;;33.37;19.17;;;5.70;1.00;;;;;;5071656;28;20235;-65
2021/11/16 01:49:10;;;;;;;31.60;18.10;;;5.80;1.00;;;;;;5071745;28;20209;-65
2021/11/16 01:51:38;;;;;;;35.13;20.27;;;5.80;1.00;;;;;;5070818;28;20722;-65
2021/11/16 01:54:06;;;;;;;32.07;18.77;;;5.80;1.00;;;;;;5071865;28;20232;-65
2021/11/16 01:56:35;;;;;;;34.10;18.80;;;5.80;1.00;;;;;;5071427;28;20201;-65
2021/11/16 01:59:03;;;;;;;32.87;19.20;;;5.90;1.00;;;;;;5071732;28;20623;-64
2021/11/16 02:01:31;;;;;;;31.47;16.97;;;6.00;1.00;;;;;;5069913;28;20205;-65
2021/11/16 02:04:00;;;;;;;36.60;19.47;;;5.90;1.00;;;;;;5073572;28;20772;-64
2021/11/16 02:06:29;;;;;;;33.40;18.90;;;5.80;1.00;;;;;;5075255;28;20212;-64
2021/11/16 02:08:58;;;;;;;31.83;18.93;;;5.80;1.00;;;;;;5075867;28;20589;-64
2021/11/16 02:11:25;;;;;;;35.83;19.43;;;5.70;1.00;;;;;;5075741;28;20221;-64
2021/11/16 02:13:53;;;;;;;31.73;17.93;;;5.80;1.00;;;;;;5075683;28;20229;-64
2021/11/16 02:16:20;;;;;;;34.70;19.30;;;5.70;1.00;;;;;;5075172;28;20209;-65
2021/11/16 02:18:47;;;;;;;33.50;18.17;;;5.70;1.00;;;;;;5074935;28;20209;-65
2021/11/16 02:21:16;;;;;;;36.23;19.17;;;5.70;1.00;;;;;;5074854;28;20744;-64
2021/11/16 02:23:43;;;;;;;38.90;20.13;;;5.70;1.00;;;;;;5075218;28;20236;-65
2021/11/16 02:26:11;;;;;;;34.37;19.17;;;5.70;1.00;;;;;;5075115;28;20208;-65
2021/11/16 02:28:38;;;;;;;34.73;19.57;;;5.70;1.00;;;;;;5075271;28;20213;-64
2021/11/16 02:31:05;;;;;;;35.43;19.07;;;5.90;1.00;;;;;;5075060;28;20312;-65
2021/11/16 02:33:32;;;;;;;32.43;19.03;;;5.90;1.00;;;;;;5075205;28;20297;-64
2021/11/16 02:35:59;;;;;;;35.63;19.57;;;5.90;1.00;;;;;;5074615;28;20630;-65
2021/11/16 02:38:27;;;;;;;29.27;18.30;;;5.90;1.00;;;;;;5073332;28;20296;-65
2021/11/16 02:40:54;;;;;;;31.83;19.63;;;5.90;1.00;;;;;;5075084;28;20490;-64
2021/11/16 02:43:22;;;;;;;35.57;20.10;;;6.00;1.00;;;;;;5075097;28;20626;-64
2021/11/16 02:45:50;;;;;;;33.83;19.40;;;6.00;1.00;;;;;;5073560;28;20274;-64
2021/11/16 02:48:16;;;;;;;33.57;20.30;;;6.00;1.00;;;;;;5075016;28;20217;-64
2021/11/16 02:50:46;;;;;;;34.80;19.60;;;5.80;1.00;;;;;;5075064;28;20235;-64
2021/11/16 02:53:12;;;;;;;36.17;19.43;;;5.80;1.00;;;;;;5073572;28;20215;-64
2021/11/16 02:55:41;;;;;;;35.33;20.17;;;5.70;1.00;;;;;;5073589;28;20209;-65
2021/11/16 02:58:09;;;;;;;31.00;18.93;;;5.60;1.00;;;;;;5074511;28;20600;-64
2021/11/16 03:00:36;;;;;;;33.60;19.20;;;5.60;1.00;;;;;;5073152;28;20211;-64
2021/11/16 03:03:03;;;;;;;33.63;18.47;;;5.70;1.00;;;;;;5074247;28;20203;-64
2021/11/16 03:05:34;;;;;;;32.87;19.17;;;5.80;1.00;;;;;;5074337;28;20282;-64
2021/11/16 03:08:01;;;;;;;38.27;19.83;;;5.80;1.00;;;;;;5074763;28;20683;-65
2021/11/16 03:10:31;;;;;;;36.80;20.30;;;5.90;1.00;;;;;;5074305;28;20228;-64
2021/11/16 03:12:59;;;;;;;34.67;19.80;;;5.90;1.00;;;;;;5073675;28;20212;-65
2021/11/16 03:15:26;;;;;;;35.77;21.07;;;5.90;1.00;;;;;;5072560;28;20642;-65
2021/11/16 03:17:53;;;;;;;31.30;19.10;;;5.90;1.00;;;;;;5074479;28;20697;-65
2021/11/16 03:20:20;;;;;;;36.00;20.80;;;5.90;1.00;;;;;;5074373;28;20197;-64
2021/11/16 03:22:50;;;;;;;31.93;19.43;;;6.00;1.00;;;;;;5074132;28;20205;-65
2021/11/16 03:25:18;;;;;;;34.53;20.20;;;6.00;1.00;;;;;;5074103;28;20275;-65
2021/11/16 03:27:50;;;;;;;31.60;19.33;;;6.10;1.00;;;;;;5073650;28;20287;-65
2021/11/16 03:30:18;;;;;;;34.33;19.13;;;6.10;1.00;;;;;;5074143;28;20216;-65
2021/11/16 03:32:45;;;;;;;32.93;20.60;;;6.10;1.00;;;;;;5073338;28;20228;-65
2021/11/16 03:35:12;;;;;;;34.13;19.90;;;6.00;1.00;;;;;;5073926;28;20310;-64
2021/11/16 03:37:43;;;;;;;31.67;19.50;;;6.00;1.00;;;;;;5073923;28;20205;-64
2021/11/16 03:40:12;;;;;;;29.57;16.93;;;6.00;1.00;;;;;;5073810;28;20315;-65
2021/11/16 03:42:43;;;;;;;31.40;18.67;;;6.00;1.00;;;;;;5073306;28;20216;-65
2021/11/16 03:45:11;;;;;;;32.93;19.43;;;5.80;1.00;;;;;;5072896;28;20290;-65
2021/11/16 03:47:39;;;;;;;32.17;19.17;;;5.90;1.00;;;;;;5073448;28;20557;-65
2021/11/16 03:50:08;;;;;;;30.83;17.63;;;5.80;1.00;;;;;;5073259;28;20675;-65
2021/11/16 03:52:38;;;;;;;31.33;18.33;;;5.80;1.00;;;;;;5072658;28;20258;-65
2021/11/16 03:55:06;;;;;;;33.43;18.70;;;5.70;1.00;;;;;;5073127;28;20315;-65
2021/11/16 03:57:32;;;;;;;34.43;19.03;;;5.80;1.00;;;;;;5073663;28;20683;-64
2021/11/16 03:59:59;;;;;;;32.80;17.63;;;5.80;1.00;;;;;;5073942;28;20212;-65
2021/11/16 04:02:26;;;;;;;29.40;18.07;;;5.80;1.00;;;;;;5073701;28;20228;-65
2021/11/16 04:04:55;;;;;;;35.33;18.07;;;5.90;1.00;;;;;;5073059;28;20233;-65
2021/11/16 04:07:22;;;;;;;30.97;18.70;;;5.90;1.00;;;;;;5073477;28;20308;-65
2021/11/16 04:09:48;;;;;;;32.40;19.17;;;5.80;1.00;;;;;;5073655;28;20204;-64
2021/11/16 04:12:16;;;;;;;33.00;19.40;;;5.70;1.00;;;;;;5073035;28;20263;-65
2021/11/16 04:14:43;;;;;;;37.57;18.80;;;5.80;1.00;;;;;;5072988;28;20232;-65
2021/11/16 04:17:09;;;;;;;36.60;20.07;;;5.80;1.00;;;;;;5072409;28;20676;-65
2021/11/16 04:19:36;;;;;;;34.83;19.67;;;5.80;1.00;;;;;;5072909;28;20208;-65
2021/11/16 04:22:06;;;;;;;33.50;19.87;;;5.90;1.00;;;;;;5073363;28;20626;-65
2021/11/16 04:24:32;;;;;;;35.33;20.27;;;5.90;1.00;;;;;;5072876;28;20264;-64
2021/11/16 04:26:59;;;;;;;34.33;19.07;;;5.80;1.00;;;;;;5072086;28;20718;-64
2021/11/16 04:29:26;;;;;;;36.67;19.73;;;5.70;1.00;;;;;;5073137;28;20258;-64
2021/11/16 04:31:56;;;;;;;39.87;21.17;;;5.70;1.00;;;;;;5072952;28;20274;-64
2021/11/16 04:34:23;;;;;;;36.27;19.63;;;5.60;1.00;;;;;;5072028;28;21015;-64
2021/11/16 04:36:50;;;;;;;32.53;18.77;;;5.70;1.00;;;;;;5072618;28;20205;-64
2021/11/16 04:39:18;;;;;;;34.47;19.03;;;5.80;1.00;;;;;;5073218;28;20205;-64
2021/11/16 04:41:45;;;;;;;35.77;21.17;;;5.90;1.00;;;;;;5072690;28;20303;-64
2021/11/16 04:44:12;;;;;;;34.47;19.93;;;6.00;1.00;;;;;;5071802;28;20667;-63
2021/11/16 04:46:39;;;;;;;37.43;21.53;;;6.10;1.00;;;;;;5072035;28;20205;-63
2021/11/16 04:49:09;;;;;;;36.97;20.17;;;6.10;1.00;;;;;;5072907;28;20212;-64
2021/11/16 04:51:46;;;;;;;37.83;20.20;;;6.10;1.00;;;;;;5072478;28;20232;-64
2021/11/16 04:59:53;;;;;;;34.87;20.57;;;6.00;1.00;;;;;;5072408;28;20203;-64
2021/11/16 05:02:37;;;;;;;35.70;20.57;;;6.10;1.00;;;;;;5072609;28;20580;-64
2021/11/16 05:05:04;;;;;;;35.67;19.77;;;6.20;1.00;;;;;;5071014;28;20220;-64
2021/11/16 05:07:32;;;;;;;39.30;20.67;;;6.10;1.00;;;;;;5072290;28;20326;-64
2021/11/16 05:10:01;;;;;;;37.87;20.63;;;6.10;1.00;;;;;;5072299;28;20217;-64
2021/11/16 05:12:31;;;;;;;37.93;22.33;;;6.20;1.00;;;;;;5072400;28;20647;-64
2021/11/16 05:15:00;;;;;;;37.80;22.40;;;6.30;1.00;;;;;;5071814;28;20412;-64
2021/11/16 05:17:27;;;;;;;43.27;22.07;;;6.30;1.00;;;;;;5072353;28;20209;-63
2021/11/16 05:19:54;;;;;;;39.47;21.23;;;6.40;1.00;;;;;;5068904;28;20208;-63
2021/11/16 05:22:21;;;;;;;36.10;21.20;;;6.40;1.00;;;;;;5071639;28;20590;-63
2021/11/16 05:24:47;;;;;;;37.37;21.53;;;6.30;1.00;;;;;;5070929;28;20225;-63
2021/11/16 05:27:15;;;;;;;36.20;19.87;;;6.30;1.00;;;;;;5071767;28;20266;-64
2021/11/16 05:29:44;;;;;;;37.47;20.40;;;6.20;1.00;;;;;;5071206;28;20240;-64
2021/11/16 05:32:11;;;;;;;34.37;19.90;;;6.10;1.00;;;;;;5071855;28;20270;-64
2021/11/16 05:34:38;;;;;;;46.00;22.80;;;5.90;1.00;;;;;;5071285;28;20225;-64
2021/11/16 05:37:05;;;;;;;39.17;21.93;;;5.60;1.00;;;;;;5071321;28;20657;-64
2021/11/16 05:39:32;;;;;;;43.03;21.60;;;5.60;1.00;;;;;;5071223;28;20205;-68
2021/11/16 05:41:59;;;;;;;39.43;21.77;;;5.60;1.00;;;;;;5051541;28;20202;-66
2021/11/16 05:44:26;;;;;;;40.40;22.10;;;5.60;1.00;;;;;;5051083;28;20238;-67
2021/11/16 05:46:54;;;;;;;48.13;22.90;;;5.60;1.00;;;;;;5050944;28;20212;-66
2021/11/16 05:49:20;;;;;;;42.13;21.53;;;5.70;1.00;;;;;;5051264;28;20250;-66
2021/11/16 05:51:47;;;;;;;40.03;21.77;;;5.70;1.00;;;;;;5050520;28;20238;-66
2021/11/16 05:54:17;;;;;;;38.30;21.63;;;5.80;1.00;;;;;;5051444;28;20238;-65
2021/11/16 05:56:45;;;;;;;39.97;22.40;;;5.90;1.00;;;;;;5050711;28;20682;-66
2021/11/16 05:59:11;;;;;;;42.50;22.37;;;6.00;1.00;;;;;;5049941;28;20205;-66
2021/11/16 06:01:39;;;;;;;38.77;21.50;;;6.10;1.00;;;;;;5050982;28;20240;-66
2021/11/16 06:04:08;;;;;;;43.03;23.77;;;6.10;1.00;;;;;;5051390;28;20589;-65
2021/11/16 06:06:37;;;;;;;37.47;21.43;;;6.10;1.00;;;;;;5051301;28;20309;-63
2021/11/16 06:09:06;;;;;;;41.00;22.47;;;6.10;1.00;;;;;;5051699;28;20212;-63
2021/11/16 06:11:33;;;;;;;40.20;22.67;;;6.10;1.00;;;;;;5051266;28;20261;-63
2021/11/16 06:14:00;;;;;;;45.27;22.30;;;6.00;1.00;;;;;;5050605;28;20230;-63
2021/11/16 06:16:27;;;;;;;37.87;21.00;;;6.00;1.00;;;;;;5050647;28;20210;-63
2021/11/16 06:18:55;;;;;;;37.40;21.07;;;5.90;1.00;;;;;;5051012;28;20212;-63
2021/11/16 06:21:24;;;;;;;40.20;20.90;;;5.90;1.00;;;;;;5051340;28;20209;-63
2021/11/16 06:23:50;;;;;;;40.40;20.50;;;5.90;1.00;;;;;;5050049;28;20225;-63
2021/11/16 06:26:17;;;;;;;40.13;20.33;;;5.90;1.00;;;;;;5051302;28;20557;-65
2021/11/16 06:28:44;;;;;;;38.87;19.83;;;5.80;1.00;;;;;;5051165;28;20244;-64
2021/11/16 06:31:11;;;;;;;43.10;20.63;;;5.90;1.00;;;;;;5050233;28;20263;-65
2021/11/16 06:33:38;;;;;;;39.70;20.43;;;6.00;1.00;;;;;;5045365;28;20264;-68
2021/11/16 06:36:05;;;;;;;42.73;22.17;;;5.90;1.00;;;;;;5049681;28;20581;-63
2021/11/16 06:38:34;;;;;;;39.73;20.87;;;5.90;1.00;;;;;;5050886;28;20288;-64
2021/11/16 06:41:00;;;;;;;40.17;21.07;;;5.90;1.00;;;;;;5050454;28;20214;-63
2021/11/16 06:43:29;;;;;;;38.07;19.40;;;5.90;1.00;;;;;;5050084;28;20229;-65
2021/11/16 06:45:58;;;;;;;39.43;20.70;;;6.00;1.00;;;;;;5050714;28;20209;-63
2021/11/16 06:48:25;;;;;;;39.87;22.30;;;5.90;1.00;;;;;;5050040;28;20245;-64
2021/11/16 06:50:53;;;;;;;40.23;20.93;;;5.90;1.00;;;;;;5054302;28;20260;-64
2021/11/16 06:53:24;;;;;;;36.73;20.00;;;6.00;1.00;;;;;;5054361;28;20398;-63
2021/11/16 06:55:53;;;;;;;33.63;19.07;;;6.00;1.00;;;;;;5034016;28;20293;-64
2021/11/16 06:58:20;;;;;;;35.33;18.07;;;6.10;1.00;;;;;;5044978;28;20672;-64
2021/11/16 07:00:47;;;;;;;32.47;18.13;;;6.10;1.00;;;;;;5054308;28;20214;-64
2021/11/16 07:03:18;;;;;;;32.90;17.90;;;6.10;1.00;;;;;;5053993;28;20248;-62
2021/11/16 07:05:47;;;;;;;33.23;18.07;;;6.10;1.00;;;;;;5052642;28;20239;-65
2021/11/16 07:08:27;;;;;;;37.20;18.30;;;6.10;1.00;;;;;;5053874;28;20218;-66
2021/11/16 07:11:02;;;;;;;33.00;18.60;;;6.10;1.00;;;;;;5054317;28;20256;-69
2021/11/16 07:13:29;;;;;;;37.77;19.17;;;6.10;1.00;;;;;;5053873;28;20251;-68
2021/11/16 07:15:56;;;;;;;37.27;19.27;;;6.10;1.00;;;;;;5053110;28;20213;-67
2021/11/16 07:18:22;;;;;;;39.30;19.90;;;6.10;1.00;;;;;;5053681;28;20209;-69
2021/11/16 07:20:57;;;;;;;36.80;17.83;;;6.10;1.00;;;;;;5052706;28;20622;-64
2021/11/16 07:23:25;;;;;;;35.63;19.20;;;6.10;1.00;;;;;;5053642;28;20644;-66
2021/11/16 07:25:51;;;;;;;35.57;18.87;;;6.20;1.00;;;;;;5053171;28;20210;-65
2021/11/16 07:28:20;;;;;;;37.03;20.27;;;6.20;1.00;;;;;;5053689;28;20255;-65
2021/11/16 07:30:46;;;;;;;36.07;18.97;;;6.10;1.00;;;;;;5052768;28;20209;-64
2021/11/16 07:33:14;;;;;;;39.23;19.03;;;6.00;1.00;;;;;;5053241;28;20275;-66
2021/11/16 07:35:43;;;;;;;41.50;20.13;;;6.00;1.00;;;;;;5052863;28;20229;-66
2021/11/16 07:38:12;;;;;;;37.97;20.20;;;5.90;1.00;;;;;;5059670;28;20209;-64
2021/11/16 07:40:43;;;;;;;36.57;18.90;;;6.00;1.00;;;;;;5053405;28;20256;-65
2021/11/16 07:43:12;;;;;;;35.47;18.67;;;5.90;1.00;;;;;;5052457;28;20240;-63
2021/11/16 07:45:41;;;;;;;35.37;18.17;;;5.90;1.00;;;;;;5052805;28;20705;-67
2021/11/16 07:48:10;;;;;;;32.00;17.60;;;6.00;1.00;;;;;;5073520;28;20628;-66
2021/11/16 07:50:46;;;;;;;35.67;19.13;;;6.00;1.00;;;;;;5075274;28;20208;-63
2021/11/16 07:53:18;;;;;;;34.23;17.50;;;5.90;1.00;;;;;;5074237;28;20220;-66
2021/11/16 07:55:57;;;;;;;37.23;18.00;;;5.90;1.00;;;;;;5062435;28;20292;-67
2021/11/16 07:58:29;;;;;;;38.30;18.50;;;5.90;1.00;;;;;;5055591;28;20244;-63
2021/11/16 08:00:59;;;;;;;40.40;20.33;;;5.80;1.00;;;;;;5057855;28;20221;-65
2021/11/16 08:03:27;;;;;;;46.13;21.67;;;5.80;1.00;;;;;;5057788;28;20259;-66
2021/11/16 08:06:04;;;;;;;41.93;21.70;;;5.90;1.00;;;;;;5056371;28;20232;-64
2021/11/16 08:08:50;;;;;;;41.23;20.50;;;5.90;1.00;;;;;;5056673;28;20216;-63
2021/11/16 08:11:21;;;;;;;41.77;20.53;;;5.90;1.00;;;;;;5054686;28;20201;-60
2021/11/16 08:13:57;;;;;;;40.83;19.67;;;6.00;1.00;;;;;;5053295;28;20231;-63
2021/11/16 08:16:27;;;;;;;36.73;19.97;;;6.00;1.00;;;;;;5053975;28;20572;-63
2021/11/16 08:18:59;;;;;;;40.63;21.23;;;6.00;1.00;;;;;;5053717;28;20213;-62
2021/11/16 08:21:27;;;;;;;78.13;43.60;;;6.10;1.00;;;;;;5053828;28;20705;-64
2021/11/16 08:23:57;;;;;;;43.70;23.60;;;6.10;1.00;;;;;;5053132;28;20232;-63
2021/11/16 08:26:27;;;;;;;39.30;20.30;;;6.20;1.00;;;;;;5052863;28;20209;-63
2021/11/16 08:28:54;;;;;;;39.37;20.93;;;6.30;1.00;;;;;;5052110;28;20206;-62
2021/11/16 08:31:21;;;;;;;76.90;41.47;;;6.20;1.00;;;;;;5052719;28;20213;-62
2021/11/16 08:33:54;;;;;;;48.37;24.13;;;6.10;1.00;;;;;;5051918;28;20225;-62
2021/11/16 08:36:29;;;;;;;47.47;23.67;;;6.00;1.00;;;;;;5051876;28;20206;-63
2021/11/16 08:38:57;;;;;;;47.77;23.83;;;5.90;1.00;;;;;;5051611;28;20201;-63
2021/11/16 08:41:30;;;;;;;49.27;22.77;;;5.90;1.00;;;;;;5051890;28;20221;-63
2021/11/16 08:44:18;;;;;;;41.50;22.60;;;6.00;1.00;;;;;;5050464;28;20613;-64
2021/11/16 08:46:47;;;;;;;42.20;20.43;;;6.20;1.00;;;;;;5050374;28;20217;-62
2021/11/16 08:49:30;;;;;;;39.90;20.93;;;6.10;1.00;;;;;;5050283;28;20259;-63
2021/11/16 08:51:59;;;;;;;47.10;21.23;;;6.20;1.00;;;;;;5051882;28;20209;-64
2021/11/16 08:54:28;;;;;;;37.43;20.40;;;6.20;1.00;;;;;;5051739;28;20225;-62
2021/11/16 08:56:55;;;;;;;42.43;20.93;;;6.00;1.00;;;;;;5051962;28;20217;-64
2021/11/16 08:59:22;;;;;;;44.20;20.83;;;6.00;1.00;;;;;;5051763;28;20205;-64
2021/11/16 09:01:58;;;;;;;44.80;21.97;;;5.90;1.00;;;;;;5051197;28;20228;-65
2021/11/16 09:04:29;;;;;;;45.60;22.43;;;6.00;1.00;;;;;;5051192;28;20374;-65
2021/11/16 09:06:57;;;;;;;46.57;21.10;;;5.90;1.00;;;;;;5051667;28;20210;-63
2021/11/16 09:09:24;;;;;;;42.93;22.23;;;5.90;2.10;;;;;;5051620;28;20209;-63
2021/11/16 09:12:00;;;;;;;42.80;20.90;;;5.90;33.30;;;;;;5051576;28;20201;-64
2021/11/16 09:14:27;;;;;;;42.60;21.33;;;5.90;56.10;;;;;;5049411;28;20229;-63
2021/11/16 09:16:54;;;;;;;41.33;21.23;;;6.00;48.50;;;;;;5050692;28;20209;-64
2021/11/16 09:19:28;;;;;;;40.40;21.13;;;6.20;32.70;;;;;;5051032;28;20206;-67
2021/11/16 09:21:55;;;;;;;38.40;20.67;;;6.20;23.80;;;;;;5050830;28;20209;-65
2021/11/16 09:24:31;;;;;;;41.20;20.97;;;6.20;11.60;;;;;;5051330;28;20244;-66
2021/11/16 09:27:10;;;;;;;39.97;20.53;;;6.30;14.30;;;;;;5051419;28;20205;-65
2021/11/16 09:29:38;;;;;;;37.20;19.63;;;6.30;7.40;;;;;;5050674;28;20205;-64
2021/11/16 09:32:10;;;;;;;40.43;20.77;;;6.40;3.00;;;;;;5050986;28;20680;-64
2021/11/16 09:34:40;;;;;;;47.57;21.23;;;6.30;2.20;;;;;;5050921;28;20626;-63
2021/11/16 09:37:11;;;;;;;37.50;19.53;;;6.30;1.00;;;;;;5051211;28;20624;-66
2021/11/16 09:39:43;;;;;;;41.80;21.83;;;6.30;1.00;;;;;;5051519;28;20597;-65
2021/11/16 09:42:11;;;;;;;38.03;19.90;;;6.20;2.10;;;;;;5051100;28;20690;-65
2021/11/16 09:44:43;;;;;;;41.73;20.53;;;6.10;19.60;;;;;;5050188;28;20229;-65
2021/11/16 09:47:15;;;;;;;44.87;22.63;;;6.20;38.50;;;;;;5050413;28;20210;-63
2021/11/16 09:49:46;;;;;;;42.60;21.20;;;6.30;54.80;;;;;;5051288;28;20205;-63
2021/11/16 09:52:16;;;;;;;38.10;20.53;;;6.30;19.10;;;;;;5051036;28;20233;-63
2021/11/16 09:54:49;;;;;;;41.60;21.67;;;6.50;1.00;;;;;;5049207;28;20239;-65
2021/11/16 09:57:17;;;;;;;36.80;18.63;;;6.50;1.00;;;;;;5051065;28;20239;-65
2021/11/16 09:59:46;;;;;;;32.87;18.60;;;6.50;1.00;;;;;;5051062;28;20684;-64
2021/11/16 10:02:17;;;;;;;38.87;19.87;;;6.50;1.00;;;;;;5051099;28;20291;-65
2021/11/16 10:04:51;;;;;;;35.33;19.60;;;6.50;1.00;;;;;;5051759;28;20233;-64
2021/11/16 10:07:19;;;;;;;38.60;18.53;;;6.50;1.00;;;;;;5051065;28;20205;-64
2021/11/16 10:09:47;;;;;;;39.53;19.23;;;6.40;1.00;;;;;;5050681;28;20216;-66
2021/11/16 10:12:15;;;;;;;36.27;18.90;;;6.40;1.00;;;;;;5049855;28;20593;-67
2021/11/16 10:14:42;;;;;;;40.33;20.40;;;6.40;1.00;;;;;;5050562;28;20737;-66
2021/11/16 10:17:09;;;;;;;37.17;18.77;;;6.40;1.00;;;;;;5050841;28;20213;-67
2021/11/16 10:19:36;;;;;;;38.67;20.03;;;6.50;1.00;;;;;;5050793;28;20711;-64
2021/11/16 10:22:11;;;;;;;35.03;19.27;;;6.60;1.00;;;;;;5049552;28;20206;-64
2021/11/16 10:24:38;;;;;;;38.67;19.00;;;6.70;1.00;;;;;;5051834;28;20225;-63
2021/11/16 10:27:32;;;;;;;35.63;18.97;;;6.70;1.00;;;;;;5054952;28;20205;-63
2021/11/16 10:30:07;;;;;;;33.83;18.03;;;6.80;1.00;;;;;;5054983;28;20201;-62
2021/11/16 10:32:34;;;;;;;41.03;19.17;;;6.70;1.00;;;;;;5054768;28;21071;-63
2021/11/16 10:35:08;;;;;;;33.30;18.37;;;6.70;1.00;;;;;;5053892;28;20226;-62
2021/11/16 10:37:49;;;;;;;32.40;17.00;;;6.70;1.00;;;;;;5054761;28;20213;-63
2021/11/16 10:40:18;;;;;;;35.37;17.43;;;6.60;1.00;;;;;;5054263;28;20773;-63
2021/11/16 10:42:47;;;;;;;35.83;18.47;;;6.50;1.00;;;;;;5054609;28;20268;-63
2021/11/16 10:45:15;;;;;;;33.57;18.00;;;6.40;1.00;;;;;;5053514;28;20267;-63
2021/11/16 10:47:44;;;;;;;36.60;17.97;;;6.40;1.00;;;;;;5054435;28;20607;-63
2021/11/16 10:50:12;;;;;;;36.20;18.43;;;6.30;1.00;;;;;;5054302;28;20727;-63
2021/11/16 10:52:39;;;;;;;35.07;17.37;;;6.30;1.00;;;;;;5053938;28;20264;-63
2021/11/16 10:55:09;;;;;;;36.17;17.57;;;6.30;1.00;;;;;;5053159;28;20260;-63
2021/11/16 10:57:53;;;;;;;33.00;17.20;;;6.40;1.00;;;;;;5053653;28;20206;-62
2021/11/16 11:00:31;;;;;;;33.83;16.67;;;6.50;1.00;;;;;;5054225;28;20558;-66
2021/11/16 11:03:24;;;;;;;30.73;16.53;;;6.50;1.00;;;;;;5052303;28;20225;-65
2021/11/16 11:05:54;;;;;;;32.90;16.63;;;6.30;1.00;;;;;;5052402;28;20202;-65
2021/11/16 11:08:46;;;;;;;36.37;17.27;;;6.40;1.00;;;;;;5052496;28;20201;-66
2021/11/16 11:11:29;;;;;;;32.10;16.33;;;6.20;1.00;;;;;;5039172;28;20214;-65
2021/11/16 11:14:00;;;;;;;30.83;16.93;;;6.20;2.30;;;;;;5052388;28;20240;-64
2021/11/16 11:16:28;;;;;;;32.07;17.00;;;6.20;2.30;;;;;;5053207;28;20222;-62
2021/11/16 11:18:56;;;;;;;33.13;17.03;;;6.30;2.30;;;;;;5054070;28;20233;-64
2021/11/16 11:21:40;;;;;;;31.10;15.33;;;6.30;1.00;;;;;;5052903;28;20685;-63
2021/11/16 11:24:19;;;;;;;32.27;16.93;;;6.40;1.00;;;;;;5053056;28;20218;-63
2021/11/16 11:26:54;;;;;;;28.17;15.53;;;6.50;1.00;;;;;;5052476;28;20284;-62
2021/11/16 11:29:30;;;;;;;28.37;15.50;;;6.40;1.00;;;;;;5053102;28;20212;-63
2021/11/16 11:32:10;;;;;;;34.17;16.60;;;6.40;1.00;;;;;;5053373;28;20221;-64
2021/11/16 11:34:40;;;;;;;35.23;17.20;;;6.40;1.00;;;;;;5052377;28;20616;-64
2021/11/16 11:37:09;;;;;;;30.77;16.53;;;6.50;1.00;;;;;;5051538;28;20214;-65
2021/11/16 11:39:37;;;;;;;27.63;15.00;;;6.40;1.00;;;;;;5053191;28;20210;-64
2021/11/16 11:42:09;;;;;;;30.70;16.77;;;6.40;1.00;;;;;;5052739;28;20680;-64
2021/11/16 11:44:42;;;;;;;28.83;15.70;;;6.40;1.00;;;;;;5041937;28;20225;-63
2021/11/16 11:47:09;;;;;;;29.03;16.10;;;6.60;1.00;;;;;;5053026;28;20229;-62
2021/11/16 11:49:36;;;;;;;28.67;14.60;;;6.60;1.00;;;;;;5053230;28;20236;-63
2021/11/16 11:52:06;;;;;;;27.57;15.60;;;6.60;1.00;;;;;;5053254;28;20644;-62
2021/11/16 11:54:33;;;;;;;25.83;14.63;;;6.60;1.00;;;;;;5052822;28;20237;-62
2021/11/16 11:57:00;;;;;;;25.93;15.10;;;6.50;1.00;;;;;;5053284;28;20215;-64
2021/11/16 11:59:28;;;;;;;28.70;15.27;;;6.40;1.00;;;;;;5053374;28;20210;-64
2021/11/16 12:01:55;;;;;;;30.23;15.60;;;6.40;1.00;;;;;;5053048;28;20216;-63
2021/11/16 12:04:22;;;;;;;25.87;14.87;;;6.30;1.00;;;;;;5052882;28;20598;-62
2021/11/16 12:06:51;;;;;;;29.40;14.80;;;6.40;1.00;;;;;;5052908;28;20255;-62
2021/11/16 12:09:18;;;;;;;30.37;15.47;;;6.50;1.00;;;;;;5052454;28;20198;-63
2021/11/16 12:11:45;;;;;;;28.80;15.53;;;6.50;1.00;;;;;;5053118;28;20209;-63
2021/11/16 12:14:28;;;;;;;23.27;13.33;;;6.50;1.00;;;;;;5052403;28;20775;-65
2021/11/16 12:17:00;;;;;;;29.57;13.60;;;6.50;1.00;;;;;;5052740;28;20667;-64
2021/11/16 12:19:39;;;;;;;27.07;13.87;;;6.50;1.00;;;;;;5052702;28;20692;-63
2021/11/16 12:22:14;;;;;;;27.50;14.70;;;6.50;1.00;;;;;;5052084;28;20220;-62
2021/11/16 12:24:46;;;;;;;24.17;13.33;;;6.50;1.00;;;;;;5051910;28;20221;-61
2021/11/16 12:27:14;;;;;;;21.80;12.83;;;6.60;1.00;;;;;;5052322;28;20214;-63
2021/11/16 12:29:44;;;;;;;25.20;12.80;;;6.50;1.00;;;;;;5053021;28;20210;-62
2021/11/16 12:32:22;;;;;;;20.00;11.90;;;6.50;1.00;;;;;;5051796;28;20202;-62
2021/11/16 12:34:52;;;;;;;20.40;11.73;;;6.50;1.00;;;;;;5051581;28;20229;-59
2021/11/16 12:37:42;;;;;;;20.83;12.23;;;6.60;1.00;;;;;;5051712;28;20243;-60
2021/11/16 12:40:16;;;;;;;22.47;13.07;;;6.60;1.00;;;;;;5052217;28;20590;-60
2021/11/16 12:43:11;;;;;;;23.10;13.90;;;6.70;1.00;;;;;;5051850;28;20668;-63
2021/11/16 12:45:40;;;;;;;23.13;13.60;;;6.70;1.00;;;;;;5050864;28;20209;-63
2021/11/16 12:48:09;;;;;;;22.40;12.77;;;6.70;1.00;;;;;;5051635;28;20214;-63
2021/11/16 12:50:37;;;;;;;21.10;12.73;;;6.60;1.00;;;;;;5051732;28;20203;-62
2021/11/16 12:53:04;;;;;;;23.27;13.90;;;6.70;1.00;;;;;;5051653;28;20263;-63
2021/11/16 12:55:33;;;;;;;22.33;13.47;;;6.80;1.00;;;;;;5050481;28;20229;-61
2021/11/16 12:58:26;;;;;;;25.53;15.07;;;6.80;1.00;;;;;;5051870;28;20321;-62
2021/11/16 13:00:53;;;;;;;27.43;14.07;;;6.80;1.00;;;;;;5052286;28;20205;-63
2021/11/16 13:03:54;;;;;;;26.33;13.47;;;6.80;1.00;;;;;;5051358;28;20212;-62